createdAt,value
2018-04-02T00:01:55.000Z,100004
2018-04-02T00:03:55.000Z,100001
2018-04-02T00:05:40.000Z,99946
2018-04-02T00:07:55.000Z,100005
2018-04-02T00:09:55.000Z,100002
2018-04-02T00:11:55.000Z,100005
2018-04-02T00:12:55.000Z,100008
2018-04-02T00:14:55.000Z,100004
2018-04-02T00:15:55.000Z,100003
2018-04-02T00:17:55.000Z,100007
2018-04-02T00:19:55.000Z,100006
2018-04-02T00:20:55.000Z,100003
2018-04-02T00:22:40.000Z,100003
2018-04-02T00:23:55.000Z,100000
2018-04-02T00:25:55.000Z,99991
2018-04-02T00:27:55.000Z,99993
2018-04-02T00:29:55.000Z,99990
2018-04-02T00:30:55.000Z,99987
2018-04-02T00:32:55.000Z,99995
2018-04-02T00:34:55.000Z,99992
2018-04-02T00:36:55.000Z,99994
2018-04-02T00:38:55.000Z,99993
2018-04-02T00:40:55.000Z,99995
2018-04-02T00:41:55.000Z,99990
2018-04-02T00:43:55.000Z,99994
2018-04-02T00:45:55.000Z,99986
2018-04-02T00:46:55.000Z,99994
2018-04-02T00:48:55.000Z,99996
2018-04-02T00:49:55.000Z,99999
2018-04-02T00:51:55.000Z,99995
2018-04-02T00:53:55.000Z,99996
2018-04-02T00:54:55.000Z,99993
2018-04-02T00:55:55.000Z,99994
2018-04-02T00:57:55.000Z,99991
2018-04-02T00:58:55.000Z,99993
2018-04-02T00:59:55.000Z,99992
2018-04-02T01:01:40.000Z,99999
2018-04-02T01:02:55.000Z,99995
2018-04-02T01:04:55.000Z,99996
2018-04-02T01:06:55.000Z,99992
2018-04-02T01:07:55.000Z,99990
2018-04-02T01:09:55.000Z,99991
2018-04-02T01:11:40.000Z,99988
2018-04-02T01:12:55.000Z,99990
2018-04-02T01:14:55.000Z,99988
2018-04-02T01:15:55.000Z,99984
2018-04-02T01:17:40.000Z,99985
2018-04-02T01:18:55.000Z,99982
2018-04-02T01:19:55.000Z,99975
2018-04-02T01:21:40.000Z,99982
2018-04-02T01:22:55.000Z,99973
2018-04-02T01:23:55.000Z,99975
2018-04-02T01:25:55.000Z,99974
2018-04-02T01:27:55.000Z,99974
2018-04-02T01:29:55.000Z,99969
2018-04-02T01:31:40.000Z,99967
2018-04-02T01:32:55.000Z,99970
2018-04-02T01:34:55.000Z,99973
2018-04-02T01:36:55.000Z,99975
2018-04-02T01:38:55.000Z,99970
2018-04-02T01:39:55.000Z,99968
2018-04-02T01:41:55.000Z,99974
2018-04-02T01:43:40.000Z,99964
2018-04-02T01:44:55.000Z,99964
2018-04-02T01:46:55.000Z,99966
2018-04-02T01:48:25.000Z,99964
2018-04-02T01:49:55.000Z,99962
2018-04-02T01:50:55.000Z,99960
2018-04-02T01:52:55.000Z,99955
2018-04-02T01:53:55.000Z,99958
2018-04-02T01:55:55.000Z,99949
2018-04-02T01:56:55.000Z,99946
2018-04-02T01:58:40.000Z,99948
2018-04-02T01:59:55.000Z,99955
2018-04-02T02:01:55.000Z,99947
2018-04-02T02:02:55.000Z,99951
2018-04-02T02:04:55.000Z,99952
2018-04-02T02:05:55.000Z,99949
2018-04-02T02:07:55.000Z,99941
2018-04-02T02:09:55.000Z,99944
2018-04-02T02:11:55.000Z,99936
2018-04-02T02:12:55.000Z,99939
2018-04-02T02:14:55.000Z,99937
2018-04-02T02:16:55.000Z,99932
2018-04-02T02:18:55.000Z,99932
2018-04-02T02:20:55.000Z,99925
2018-04-02T02:22:55.000Z,99921
2018-04-02T02:24:55.000Z,99919
2018-04-02T02:25:55.000Z,99920
2018-04-02T02:27:55.000Z,99914
2018-04-02T02:28:55.000Z,99913
2018-04-02T02:30:55.000Z,99914
2018-04-02T02:31:55.000Z,99917
2018-04-02T02:33:40.000Z,99913
2018-04-02T02:34:55.000Z,99914
2018-04-02T02:36:55.000Z,99911
2018-04-02T02:37:55.000Z,99912
2018-04-02T02:39:55.000Z,99906
2018-04-02T02:40:55.000Z,99910
2018-04-02T02:42:55.000Z,99904
2018-04-02T02:44:55.000Z,99915
2018-04-02T02:45:55.000Z,99914
2018-04-02T02:47:55.000Z,99911
2018-04-02T02:49:55.000Z,99904
2018-04-02T02:50:55.000Z,99907
2018-04-02T02:52:55.000Z,99908
2018-04-02T02:53:55.000Z,99906
2018-04-02T02:55:55.000Z,99905
2018-04-02T02:56:55.000Z,99909
2018-04-02T02:58:55.000Z,99896
2018-04-02T03:00:55.000Z,99903
2018-04-02T03:01:55.000Z,99898
2018-04-02T03:02:55.000Z,99901
2018-04-02T03:03:55.000Z,99898
2018-04-02T03:05:55.000Z,99902
2018-04-02T03:07:55.000Z,99901
2018-04-02T03:09:39.000Z,99896
2018-04-02T03:10:55.000Z,99901
2018-04-02T03:12:39.000Z,99902
2018-04-02T03:13:55.000Z,99902
2018-04-02T03:14:55.000Z,99899
2018-04-02T03:16:55.000Z,99902
2018-04-02T03:17:55.000Z,99900
2018-04-02T03:19:55.000Z,99901
2018-04-02T03:20:55.000Z,99898
2018-04-02T03:22:55.000Z,99892
2018-04-02T03:24:55.000Z,99895
2018-04-02T03:25:55.000Z,99899
2018-04-02T03:27:39.000Z,99892
2018-04-02T03:28:39.000Z,99888
2018-04-02T03:29:55.000Z,99882
2018-04-02T03:31:55.000Z,99878
2018-04-02T03:33:55.000Z,99882
2018-04-02T03:35:55.000Z,99878
2018-04-02T03:36:55.000Z,99879
2018-04-02T03:38:55.000Z,99878
2018-04-02T03:40:55.000Z,99878
2018-04-02T03:41:55.000Z,99881
2018-04-02T03:43:39.000Z,99879
2018-04-02T03:44:55.000Z,99874
2018-04-02T03:45:55.000Z,99872
2018-04-02T03:47:55.000Z,99877
2018-04-02T03:49:55.000Z,99866
2018-04-02T03:51:40.000Z,99864
2018-04-02T03:52:55.000Z,99864
2018-04-02T03:53:55.000Z,99861
2018-04-02T03:55:55.000Z,99860
2018-04-02T03:56:55.000Z,99858
2018-04-02T03:58:55.000Z,99865
2018-04-02T04:00:55.000Z,99859
2018-04-02T04:02:55.000Z,99859
2018-04-02T04:04:55.000Z,99865
2018-04-02T04:06:40.000Z,99867
2018-04-02T04:07:55.000Z,99867
2018-04-02T04:09:55.000Z,99872
2018-04-02T04:10:55.000Z,99868
2018-04-02T04:12:55.000Z,99872
2018-04-02T04:13:55.000Z,99878
2018-04-02T04:15:55.000Z,99877
2018-04-02T04:17:55.000Z,99875
2018-04-02T04:18:55.000Z,99877
2018-04-02T04:20:40.000Z,99879
2018-04-02T04:21:55.000Z,99876
2018-04-02T04:22:55.000Z,99874
2018-04-02T04:23:55.000Z,99870
2018-04-02T04:25:55.000Z,99876
2018-04-02T04:27:55.000Z,99875
2018-04-02T04:29:55.000Z,99872
2018-04-02T04:30:55.000Z,99872
2018-04-02T04:32:40.000Z,99866
2018-04-02T04:33:55.000Z,99862
2018-04-02T04:35:55.000Z,99863
2018-04-02T04:37:55.000Z,99862
2018-04-02T04:38:55.000Z,99859
2018-04-02T04:40:55.000Z,99852
2018-04-02T04:41:55.000Z,99859
2018-04-02T04:43:55.000Z,99853
2018-04-02T04:45:55.000Z,99853
2018-04-02T04:46:55.000Z,99850
2018-04-02T04:48:55.000Z,99850
2018-04-02T04:49:55.000Z,99849
2018-04-02T04:50:55.000Z,99848
2018-04-02T04:52:55.000Z,99836
2018-04-02T04:54:39.000Z,99840
2018-04-02T04:55:55.000Z,99836
2018-04-02T04:57:39.000Z,99833
2018-04-02T04:58:55.000Z,99837
2018-04-02T04:59:55.000Z,99833
2018-04-02T05:00:55.000Z,99827
2018-04-02T05:02:55.000Z,99829
2018-04-02T05:03:55.000Z,99825
2018-04-02T05:04:55.000Z,99827
2018-04-02T05:06:54.000Z,99827
2018-04-02T05:07:55.000Z,99830
2018-04-02T05:09:55.000Z,99823
2018-04-02T05:11:55.000Z,99817
2018-04-02T05:13:55.000Z,99818
2018-04-02T05:15:55.000Z,99817
2018-04-02T05:16:55.000Z,99814
2018-04-02T05:18:39.000Z,99810
2018-04-02T05:19:55.000Z,99813
2018-04-02T05:21:55.000Z,99811
2018-04-02T05:23:55.000Z,99813
2018-04-02T05:25:55.000Z,99809
2018-04-02T05:26:55.000Z,99811
2018-04-02T05:28:55.000Z,99805
2018-04-02T05:30:55.000Z,99807
2018-04-02T05:32:55.000Z,99811
2018-04-02T05:33:55.000Z,99810
2018-04-02T05:35:55.000Z,99804
2018-04-02T05:37:55.000Z,99805
2018-04-02T05:39:55.000Z,99803
2018-04-02T05:40:55.000Z,99807
2018-04-02T05:42:55.000Z,99806
2018-04-02T05:44:55.000Z,99802
2018-04-02T05:46:55.000Z,99801
2018-04-02T05:48:55.000Z,99799
2018-04-02T05:50:55.000Z,99793
2018-04-02T05:52:55.000Z,99792
2018-04-02T05:54:55.000Z,99790
2018-04-02T05:55:55.000Z,99793
2018-04-02T05:57:55.000Z,99789
2018-04-02T05:58:55.000Z,99787
2018-04-02T06:00:55.000Z,99784
2018-04-02T06:02:55.000Z,99786
2018-04-02T06:03:55.000Z,99782
2018-04-02T06:05:55.000Z,99788
2018-04-02T06:07:55.000Z,99785
2018-04-02T06:09:55.000Z,99784
2018-04-02T06:11:55.000Z,99782
2018-04-02T06:13:55.000Z,99779
2018-04-02T06:15:55.000Z,99780
2018-04-02T06:17:55.000Z,99777
2018-04-02T06:18:55.000Z,99777
2018-04-02T06:20:39.000Z,99774
2018-04-02T06:21:55.000Z,99771
2018-04-02T06:22:55.000Z,99771
2018-04-02T06:24:55.000Z,99769
2018-04-02T06:25:55.000Z,99769
2018-04-02T06:26:55.000Z,99768
2018-04-02T06:28:39.000Z,99767
2018-04-02T06:29:55.000Z,99770
2018-04-02T06:31:55.000Z,99764
2018-04-02T06:32:55.000Z,99765
2018-04-02T06:34:55.000Z,99771
2018-04-02T06:35:55.000Z,99768
2018-04-02T06:36:55.000Z,99766
2018-04-02T06:38:55.000Z,99770
2018-04-02T06:40:55.000Z,99763
2018-04-02T06:42:55.000Z,99763
2018-04-02T06:44:55.000Z,99759
2018-04-02T06:46:55.000Z,99761
2018-04-02T06:48:55.000Z,99753
2018-04-02T06:50:55.000Z,99754
2018-04-02T06:51:55.000Z,99754
2018-04-02T06:53:55.000Z,99755
2018-04-02T06:55:55.000Z,99758
2018-04-02T06:57:55.000Z,99763
2018-04-02T06:58:55.000Z,99760
2018-04-02T07:00:55.000Z,99756
2018-04-02T07:01:55.000Z,99759
2018-04-02T07:03:55.000Z,99758
2018-04-02T07:04:55.000Z,99762
2018-04-02T07:06:55.000Z,99759
2018-04-02T07:08:55.000Z,99759
2018-04-02T07:09:55.000Z,99763
2018-04-02T07:11:55.000Z,99760
2018-04-02T07:12:55.000Z,99753
2018-04-02T07:14:25.000Z,99754
2018-04-02T07:15:55.000Z,99749
2018-04-02T07:17:55.000Z,99757
2018-04-02T07:19:55.000Z,99753
2018-04-02T07:21:55.000Z,99744
2018-04-02T07:22:55.000Z,99744
2018-04-02T07:23:55.000Z,99744
2018-04-02T07:25:55.000Z,99749
2018-04-02T07:27:40.000Z,99625
2018-04-02T07:29:55.000Z,99742
2018-04-02T07:31:55.000Z,99737
2018-04-02T07:32:55.000Z,99734
2018-04-02T07:34:55.000Z,99732
2018-04-02T07:36:40.000Z,99736
2018-04-02T07:37:55.000Z,99731
2018-04-02T07:39:40.000Z,99731
2018-04-02T07:40:55.000Z,99724
2018-04-02T07:41:55.000Z,99729
2018-04-02T07:43:40.000Z,99729
2018-04-02T07:44:55.000Z,99731
2018-04-02T07:46:55.000Z,99730
2018-04-02T07:48:55.000Z,99727
2018-04-02T07:50:55.000Z,99720
2018-04-02T07:52:55.000Z,99721
2018-04-02T07:54:55.000Z,99720
2018-04-02T07:56:55.000Z,99716
2018-04-02T07:58:55.000Z,99723
2018-04-02T08:00:40.000Z,99713
2018-04-02T08:01:55.000Z,99713
2018-04-02T08:03:55.000Z,99711
2018-04-02T08:04:55.000Z,99711
2018-04-02T08:06:55.000Z,99710
2018-04-02T08:08:55.000Z,99705
2018-04-02T08:10:55.000Z,99707
2018-04-02T08:12:55.000Z,99704
2018-04-02T08:13:55.000Z,99707
2018-04-02T08:15:55.000Z,99704
2018-04-02T08:16:55.000Z,99702
2018-04-02T08:18:55.000Z,99697
2018-04-02T08:20:55.000Z,99701
2018-04-02T08:22:55.000Z,99696
2018-04-02T08:23:55.000Z,99693
2018-04-02T08:25:40.000Z,99692
2018-04-02T08:26:55.000Z,99690
2018-04-02T08:28:40.000Z,99690
2018-04-02T08:29:55.000Z,99678
2018-04-02T08:31:55.000Z,99683
2018-04-02T08:33:55.000Z,99677
2018-04-02T08:35:55.000Z,99676
2018-04-02T08:36:55.000Z,99674
2018-04-02T08:38:40.000Z,99676
2018-04-02T08:39:55.000Z,99674
2018-04-02T08:41:55.000Z,99675
2018-04-02T08:42:55.000Z,99675
2018-04-02T08:44:55.000Z,99670
2018-04-02T08:45:55.000Z,99671
2018-04-02T08:46:55.000Z,99670
2018-04-02T08:47:55.000Z,99667
2018-04-02T08:52:56.000Z,99669
2018-04-02T08:54:41.000Z,99663
2018-04-02T08:56:41.000Z,99670
2018-04-02T08:57:41.000Z,99668
2018-04-02T08:59:41.000Z,99666
2018-04-02T09:00:41.000Z,99664
2018-04-02T09:02:11.000Z,99663
2018-04-02T09:03:41.000Z,99663
2018-04-02T09:04:41.000Z,99659
2018-04-02T09:06:25.000Z,99658
2018-04-02T09:07:41.000Z,99661
2018-04-02T09:08:41.000Z,99658
2018-04-02T09:10:41.000Z,99656
2018-04-02T09:11:41.000Z,99650
2018-04-02T09:13:41.000Z,99654
2018-04-02T09:15:41.000Z,99654
2018-04-02T09:17:41.000Z,99654
2018-04-02T09:19:41.000Z,99650
2018-04-02T09:21:41.000Z,99639
2018-04-02T09:23:25.000Z,99641
2018-04-02T09:24:41.000Z,99636
2018-04-02T09:26:25.000Z,99638
2018-04-02T09:27:41.000Z,99633
2018-04-02T09:28:41.000Z,99628
2018-04-02T09:30:25.000Z,99627
2018-04-02T09:31:41.000Z,99626
2018-04-02T09:32:41.000Z,99628
2018-04-02T09:34:41.000Z,99616
2018-04-02T09:36:41.000Z,99617
2018-04-02T09:38:41.000Z,99616
2018-04-02T09:39:41.000Z,99614
2018-04-02T09:41:41.000Z,99612
2018-04-02T09:43:41.000Z,99617
2018-04-02T09:45:41.000Z,99614
2018-04-02T09:47:41.000Z,99613
2018-04-02T09:49:41.000Z,99612
2018-04-02T09:50:41.000Z,99607
2018-04-02T09:52:41.000Z,99613
2018-04-02T09:53:41.000Z,99611
2018-04-02T09:55:41.000Z,99605
2018-04-02T09:57:41.000Z,99606
2018-04-02T09:59:41.000Z,99604
2018-04-02T10:00:41.000Z,99602
2018-04-02T10:01:41.000Z,99593
2018-04-02T10:03:41.000Z,99593
2018-04-02T10:05:41.000Z,99586
2018-04-02T10:07:41.000Z,99595
2018-04-02T10:09:25.000Z,99585
2018-04-02T10:10:41.000Z,99585
2018-04-02T10:11:41.000Z,99585
2018-04-02T10:13:41.000Z,99576
2018-04-02T10:14:41.000Z,99573
2018-04-02T10:16:41.000Z,99569
2018-04-02T10:18:41.000Z,99565
2018-04-02T10:19:41.000Z,99564
2018-04-02T10:21:41.000Z,99561
2018-04-02T10:22:41.000Z,99560
2018-04-02T10:24:41.000Z,99558
2018-04-02T10:26:10.000Z,99551
2018-04-02T10:27:41.000Z,99557
2018-04-02T10:29:41.000Z,99549
2018-04-02T10:30:41.000Z,99547
2018-04-02T10:32:41.000Z,99541
2018-04-02T10:34:41.000Z,99539
2018-04-02T10:35:41.000Z,99534
2018-04-02T10:37:41.000Z,99526
2018-04-02T10:39:41.000Z,99523
2018-04-02T10:41:41.000Z,99515
2018-04-02T10:43:41.000Z,99519
2018-04-02T10:44:41.000Z,99514
2018-04-02T10:46:41.000Z,99514
2018-04-02T10:48:41.000Z,99511
2018-04-02T10:50:41.000Z,99511
2018-04-02T10:51:41.000Z,99505
2018-04-02T10:53:41.000Z,99507
2018-04-02T10:54:41.000Z,99500
2018-04-02T10:56:41.000Z,99502
2018-04-02T10:58:41.000Z,99501
2018-04-02T11:00:41.000Z,99499
2018-04-02T11:01:41.000Z,99495
2018-04-02T11:03:41.000Z,99488
2018-04-02T11:05:41.000Z,99494
2018-04-02T11:07:41.000Z,99482
2018-04-02T11:08:41.000Z,99479
2018-04-02T11:10:10.000Z,99472
2018-04-02T11:11:41.000Z,99472
2018-04-02T11:13:41.000Z,99472
2018-04-02T11:15:41.000Z,99464
2018-04-02T11:17:41.000Z,99463
2018-04-02T11:19:41.000Z,99466
2018-04-02T11:21:41.000Z,99458
2018-04-02T11:23:25.000Z,99456
2018-04-02T11:24:41.000Z,99450
2018-04-02T11:26:25.000Z,99450
2018-04-02T11:27:41.000Z,99450
2018-04-02T11:28:41.000Z,99455
2018-04-02T11:30:41.000Z,99450
2018-04-02T11:31:41.000Z,99444
2018-04-02T11:33:41.000Z,99439
2018-04-02T11:35:41.000Z,99438
2018-04-02T11:36:41.000Z,99433
2018-04-02T11:37:41.000Z,99430
2018-04-02T11:39:41.000Z,99427
2018-04-02T11:41:25.000Z,99425
2018-04-02T11:42:41.000Z,99422
2018-04-02T11:44:41.000Z,99420
2018-04-02T11:46:41.000Z,99418
2018-04-02T11:48:41.000Z,99408
2018-04-02T11:50:41.000Z,99407
2018-04-02T11:52:41.000Z,99403
2018-04-02T11:53:41.000Z,99406
2018-04-02T11:54:41.000Z,99414
2018-04-02T11:56:41.000Z,99403
2018-04-02T11:58:41.000Z,99399
2018-04-02T12:00:41.000Z,99398
2018-04-02T12:02:41.000Z,99389
2018-04-02T12:03:41.000Z,99384
2018-04-02T12:04:41.000Z,99384
2018-04-02T12:05:41.000Z,99384
2018-04-02T12:07:25.000Z,99389
2018-04-02T12:08:41.000Z,99392
2018-04-02T12:09:41.000Z,99385
2018-04-02T12:11:25.000Z,99378
2018-04-02T12:12:41.000Z,99379
2018-04-02T12:13:41.000Z,99376
2018-04-02T12:15:41.000Z,99377
2018-04-02T12:17:41.000Z,99379
2018-04-02T12:19:41.000Z,99372
2018-04-02T12:21:26.000Z,99367
2018-04-02T12:22:41.000Z,99363
2018-04-02T12:24:41.000Z,99350
2018-04-02T12:26:26.000Z,99360
2018-04-02T12:27:41.000Z,99362
2018-04-02T12:29:41.000Z,99362
2018-04-02T12:31:41.000Z,99360
2018-04-02T12:32:41.000Z,99349
2018-04-02T12:34:41.000Z,99345
2018-04-02T12:36:26.000Z,99345
2018-04-02T12:37:41.000Z,99345
2018-04-02T12:38:41.000Z,99339
2018-04-02T12:40:11.000Z,99344
2018-04-02T12:41:41.000Z,99338
2018-04-02T12:42:41.000Z,99340
2018-04-02T12:44:41.000Z,99335
2018-04-02T12:45:41.000Z,99340
2018-04-02T12:46:41.000Z,99336
2018-04-02T12:47:41.000Z,99338
2018-04-02T12:49:26.000Z,99335
2018-04-02T12:50:41.000Z,99328
2018-04-02T12:52:41.000Z,99319
2018-04-02T12:53:41.000Z,99320
2018-04-02T12:55:41.000Z,99320
2018-04-02T12:56:41.000Z,99312
2018-04-02T12:58:41.000Z,99310
2018-04-02T12:59:41.000Z,99308
2018-04-02T13:01:41.000Z,99302
2018-04-02T13:03:41.000Z,99291
2018-04-02T13:04:41.000Z,99292
2018-04-02T13:06:41.000Z,99287
2018-04-02T13:07:41.000Z,99285
2018-04-02T13:09:41.000Z,99280
2018-04-02T13:10:41.000Z,99278
2018-04-02T13:12:41.000Z,99278
2018-04-02T13:14:41.000Z,99280
2018-04-02T13:16:41.000Z,99286
2018-04-02T13:17:41.000Z,99287
2018-04-02T13:19:41.000Z,99280
2018-04-02T13:21:41.000Z,99279
2018-04-02T13:23:41.000Z,99274
2018-04-02T13:25:41.000Z,99271
2018-04-02T13:26:41.000Z,99281
2018-04-02T13:27:41.000Z,99279
2018-04-02T13:29:41.000Z,99275
2018-04-02T13:31:26.000Z,99276
2018-04-02T13:32:41.000Z,99273
2018-04-02T13:34:41.000Z,99266
2018-04-02T13:36:41.000Z,99271
2018-04-02T13:38:41.000Z,99270
2018-04-02T13:40:41.000Z,99269
2018-04-02T13:41:41.000Z,99262
2018-04-02T13:43:41.000Z,99262
2018-04-02T13:44:41.000Z,99262
2018-04-02T13:45:41.000Z,99261
2018-04-02T13:47:41.000Z,99248
2018-04-02T13:49:41.000Z,99252
2018-04-02T13:51:26.000Z,99247
2018-04-02T13:52:26.000Z,99246
2018-04-02T13:53:41.000Z,99246
2018-04-02T13:55:41.000Z,99234
2018-04-02T13:57:41.000Z,99235
2018-04-02T13:58:41.000Z,99235
2018-04-02T14:00:41.000Z,99227
2018-04-02T14:02:41.000Z,99227
2018-04-02T14:04:26.000Z,99225
2018-04-02T14:05:41.000Z,99232
2018-04-02T14:06:41.000Z,99221
2018-04-02T14:08:41.000Z,99228
2018-04-02T14:09:41.000Z,99217
2018-04-02T14:11:41.000Z,99214
2018-04-02T14:12:41.000Z,99216
2018-04-02T14:14:41.000Z,99207
2018-04-02T14:16:26.000Z,99204
2018-04-02T14:17:26.000Z,99203
2018-04-02T14:18:41.000Z,99198
2018-04-02T14:20:41.000Z,99206
2018-04-02T14:22:41.000Z,99196
2018-04-02T14:24:41.000Z,99189
2018-04-02T14:26:41.000Z,99188
2018-04-02T14:27:41.000Z,99190
2018-04-02T14:29:41.000Z,99184
2018-04-02T14:31:41.000Z,99183
2018-04-02T14:33:41.000Z,99179
2018-04-02T14:35:41.000Z,99169
2018-04-02T14:37:41.000Z,99177
2018-04-02T14:39:41.000Z,99175
2018-04-02T14:40:41.000Z,99173
2018-04-02T14:42:41.000Z,99168
2018-04-02T14:44:41.000Z,99161
2018-04-02T14:45:41.000Z,99164
2018-04-02T14:47:41.000Z,99156
2018-04-02T14:49:41.000Z,99147
2018-04-02T14:51:41.000Z,99143
2018-04-02T14:53:41.000Z,99148
2018-04-02T14:55:26.000Z,99142
2018-04-02T14:56:41.000Z,99139
2018-04-02T14:58:26.000Z,99098
2018-04-02T14:59:41.000Z,99136
2018-04-02T15:01:41.000Z,99122
2018-04-02T15:03:41.000Z,99125
2018-04-02T15:05:41.000Z,99114
2018-04-02T15:07:41.000Z,99111
2018-04-02T15:09:41.000Z,99110
2018-04-02T15:10:41.000Z,99104
2018-04-02T15:12:41.000Z,99103
2018-04-02T15:13:41.000Z,99103
2018-04-02T15:14:41.000Z,99099
2018-04-02T15:16:41.000Z,99095
2018-04-02T15:18:41.000Z,99095
2018-04-02T15:20:41.000Z,99090
2018-04-02T15:22:41.000Z,99081
2018-04-02T15:23:41.000Z,99076
2018-04-02T15:25:41.000Z,99081
2018-04-02T15:27:41.000Z,99081
2018-04-02T15:29:26.000Z,99077
2018-04-02T15:30:41.000Z,99073
2018-04-02T15:31:41.000Z,99076
2018-04-02T15:33:41.000Z,99071
2018-04-02T15:35:41.000Z,99060
2018-04-02T15:37:41.000Z,99058
2018-04-02T15:39:41.000Z,99057
2018-04-02T15:40:41.000Z,99059
2018-04-02T15:42:41.000Z,99049
2018-04-02T15:44:41.000Z,99046
2018-04-02T15:46:26.000Z,99045
2018-04-02T15:47:41.000Z,99049
2018-04-02T15:48:41.000Z,99034
2018-04-02T15:50:41.000Z,99037
2018-04-02T15:52:26.000Z,99027
2018-04-02T15:53:41.000Z,99024
2018-04-02T15:54:41.000Z,99022
2018-04-02T15:56:41.000Z,99019
2018-04-02T15:57:41.000Z,99023
2018-04-02T15:59:41.000Z,99022
2018-04-02T16:00:41.000Z,99025
2018-04-02T16:01:41.000Z,99021
2018-04-02T16:03:41.000Z,99013
2018-04-02T16:04:41.000Z,99015
2018-04-02T16:06:41.000Z,99007
2018-04-02T16:07:41.000Z,99008
2018-04-02T16:08:41.000Z,99002
2018-04-02T16:10:41.000Z,99001
2018-04-02T16:12:26.000Z,98999
2018-04-02T16:13:26.000Z,98999
2018-04-02T16:14:41.000Z,98994
2018-04-02T16:16:41.000Z,98983
2018-04-02T16:18:41.000Z,98980
2018-04-02T16:20:41.000Z,98980
2018-04-02T16:22:41.000Z,98972
2018-04-02T16:23:41.000Z,98968
2018-04-02T16:25:41.000Z,98963
2018-04-02T16:26:41.000Z,98963
2018-04-02T16:27:41.000Z,98961
2018-04-02T16:29:41.000Z,98957
2018-04-02T16:33:27.000Z,98943
2018-04-02T16:35:27.000Z,98934
2018-04-02T16:36:27.000Z,98939
2018-04-02T16:38:12.000Z,98926
2018-04-02T16:39:27.000Z,98928
2018-04-02T16:41:27.000Z,98928
2018-04-02T16:43:27.000Z,98926
2018-04-02T16:45:12.000Z,98926
2018-04-02T16:46:27.000Z,98925
2018-04-02T16:48:27.000Z,98926
2018-04-02T16:50:27.000Z,98922
2018-04-02T16:51:27.000Z,98923
2018-04-02T16:53:27.000Z,98927
2018-04-02T16:55:27.000Z,98926
2018-04-02T16:57:27.000Z,98930
2018-04-02T16:59:27.000Z,98925
2018-04-02T17:01:12.000Z,98925
2018-04-02T17:02:27.000Z,98924
2018-04-02T17:03:27.000Z,98921
2018-04-02T17:05:27.000Z,98917
2018-04-02T17:07:27.000Z,98918
2018-04-02T17:08:27.000Z,98912
2018-04-02T17:09:27.000Z,98915
2018-04-02T17:11:27.000Z,98910
2018-04-02T17:13:27.000Z,98909
2018-04-02T17:14:27.000Z,98909
2018-04-02T17:15:27.000Z,98904
2018-04-02T17:17:27.000Z,98899
2018-04-02T17:19:27.000Z,98897
2018-04-02T17:20:27.000Z,98900
2018-04-02T17:21:27.000Z,98899
2018-04-02T17:23:12.000Z,98893
2018-04-02T17:24:28.000Z,98894
2018-04-02T17:26:27.000Z,98891
2018-04-02T17:27:27.000Z,98893
2018-04-02T17:29:27.000Z,98896
2018-04-02T17:30:27.000Z,98893
2018-04-02T17:32:27.000Z,98896
2018-04-02T17:34:27.000Z,98907
2018-04-02T17:38:27.000Z,98902
2018-04-02T17:40:12.000Z,98899
2018-04-02T17:41:12.000Z,98907
2018-04-02T17:42:12.000Z,98906
2018-04-02T17:44:12.000Z,98895
2018-04-02T17:45:12.000Z,98894
2018-04-02T17:47:12.000Z,98887
2018-04-02T17:48:12.000Z,98880
2018-04-02T17:50:12.000Z,98880
2018-04-02T17:52:12.000Z,98884
2018-04-02T17:54:12.000Z,98881
2018-04-02T17:56:12.000Z,98873
2018-04-02T17:58:12.000Z,98878
2018-04-02T18:02:12.000Z,98880
2018-04-02T18:03:12.000Z,98878
2018-04-02T18:05:12.000Z,98873
2018-04-02T18:06:12.000Z,98874
2018-04-02T18:08:12.000Z,98877
2018-04-02T18:10:12.000Z,98878
2018-04-02T18:11:12.000Z,98877
2018-04-02T18:13:12.000Z,98873
2018-04-02T18:14:12.000Z,98879
2018-04-02T18:16:13.000Z,98874
2018-04-02T18:18:13.000Z,98874
2018-04-02T18:19:57.000Z,98879
2018-04-02T18:21:12.000Z,98876
2018-04-02T18:22:12.000Z,98871
2018-04-02T18:24:12.000Z,98869
2018-04-02T18:26:12.000Z,98871
2018-04-02T18:27:12.000Z,98867
2018-04-02T18:29:12.000Z,98865
2018-04-02T18:31:12.000Z,98864
2018-04-02T18:32:57.000Z,98860
2018-04-02T18:34:12.000Z,98862
2018-04-02T18:36:12.000Z,98856
2018-04-02T18:37:12.000Z,98849
2018-04-02T18:39:12.000Z,98852
2018-04-02T18:40:12.000Z,98853
2018-04-02T18:42:12.000Z,98856
2018-04-02T18:43:12.000Z,98858
2018-04-02T18:44:57.000Z,98861
2018-04-02T18:47:12.000Z,98867
2018-04-02T18:49:12.000Z,98864
2018-04-02T18:50:12.000Z,98868
2018-04-02T18:52:12.000Z,98872
2018-04-02T18:54:12.000Z,98865
2018-04-02T18:55:57.000Z,98870
2018-04-02T18:57:12.000Z,98875
2018-04-02T18:58:57.000Z,98872
2018-04-02T19:00:12.000Z,98869
2018-04-02T19:02:12.000Z,98864
2018-04-02T19:04:12.000Z,98865
2018-04-02T19:06:12.000Z,98868
2018-04-02T19:07:57.000Z,98880
2018-04-02T19:09:12.000Z,98889
2018-04-02T19:10:57.000Z,98883
2018-04-02T19:12:12.000Z,98883
2018-04-02T19:13:12.000Z,98884
2018-04-02T19:14:12.000Z,98885
2018-04-02T19:15:12.000Z,98885
2018-04-02T19:17:12.000Z,98882
2018-04-02T19:19:12.000Z,98888
2018-04-02T19:21:12.000Z,98888
2018-04-02T19:23:12.000Z,98884
2018-04-02T19:24:57.000Z,98887
2018-04-02T19:26:12.000Z,98887
2018-04-02T19:27:12.000Z,98885
2018-04-02T19:29:12.000Z,98885
2018-04-02T19:31:12.000Z,98887
2018-04-02T19:33:12.000Z,98885
2018-04-02T19:35:12.000Z,98894
2018-04-02T19:36:12.000Z,98883
2018-04-02T19:38:12.000Z,98870
2018-04-02T19:39:12.000Z,98873
2018-04-02T19:41:13.000Z,98875
2018-04-02T19:43:13.000Z,98871
2018-04-02T19:44:13.000Z,98871
2018-04-02T19:46:13.000Z,98878
2018-04-02T19:48:13.000Z,98886
2018-04-02T19:50:13.000Z,98885
2018-04-02T19:51:13.000Z,98887
2018-04-02T19:52:42.000Z,98888
2018-04-02T19:54:13.000Z,98892
2018-04-02T19:55:13.000Z,98887
2018-04-02T19:57:13.000Z,98891
2018-04-02T19:58:13.000Z,98892
2018-04-02T20:00:13.000Z,98892
2018-04-02T20:02:13.000Z,98894
2018-04-02T20:04:13.000Z,98886
2018-04-02T20:05:58.000Z,98887
2018-04-02T20:07:13.000Z,98881
2018-04-02T20:08:13.000Z,98881
2018-04-02T20:10:13.000Z,98879
2018-04-02T20:11:58.000Z,98875
2018-04-02T20:13:13.000Z,98882
2018-04-02T20:15:13.000Z,98866
2018-04-02T20:17:13.000Z,98867
2018-04-02T20:19:13.000Z,98865
2018-04-02T20:20:13.000Z,98869
2018-04-02T20:21:58.000Z,98863
2018-04-02T20:23:13.000Z,98865
2018-04-02T20:25:13.000Z,98864
2018-04-02T20:26:58.000Z,98860
2018-04-02T20:28:13.000Z,98861
2018-04-02T20:30:13.000Z,98856
2018-04-02T20:32:13.000Z,98849
2018-04-02T20:34:13.000Z,98852
2018-04-02T20:35:13.000Z,98848
2018-04-02T20:37:13.000Z,98846
2018-04-02T20:38:13.000Z,98841
2018-04-02T20:39:13.000Z,98846
2018-04-02T20:41:13.000Z,98849
2018-04-02T20:42:58.000Z,98845
2018-04-02T20:44:13.000Z,98840
2018-04-02T20:45:13.000Z,98841
2018-04-02T20:47:13.000Z,98851
2018-04-02T20:48:13.000Z,98841
2018-04-02T20:49:13.000Z,98847
2018-04-02T20:51:13.000Z,98840
2018-04-02T20:53:13.000Z,98838
2018-04-02T20:54:13.000Z,98840
2018-04-02T20:56:13.000Z,98841
2018-04-02T20:58:13.000Z,98829
2018-04-02T20:59:58.000Z,98825
2018-04-02T21:01:13.000Z,98829